sensor_id;sensor_type;location;lat;lon;timestamp;P1;durP1;ratioP1;P2;durP2;ratioP2
30010;SDS011;16851;53.564;8.112;2023-11-18T00:04:43;27.70;;;17.40;;
30010;SDS011;16851;53.564;8.112;2023-11-18T00:09:48;32.67;;;18.83;;
30010;SDS011;16851;53.564;8.112;2023-11-18T00:14:50;27.63;;;15.87;;
30010;SDS011;16851;53.564;8.112;2023-11-18T00:19:52;28.13;;;15.33;;
30010;SDS011;16851;53.564;8.112;2023-11-18T00:24:56;29.77;;;17.53;;
30010;SDS011;16851;53.564;8.112;2023-11-18T00:30:00;38.20;;;20.97;;
30010;SDS011;16851;53.564;8.112;2023-11-18T00:35:02;21.47;;;14.23;;
30010;SDS011;16851;53.564;8.112;2023-11-18T00:40:10;20.03;;;12.60;;
30010;SDS011;16851;53.564;8.112;2023-11-18T00:45:13;17.40;;;12.30;;
30010;SDS011;16851;53.564;8.112;2023-11-18T00:50:17;18.67;;;11.90;;
30010;SDS011;16851;53.564;8.112;2023-11-18T00:55:21;18.17;;;12.10;;
30010;SDS011;16851;53.564;8.112;2023-11-18T01:00:26;21.10;;;12.83;;
30010;SDS011;16851;53.564;8.112;2023-11-18T01:05:30;17.80;;;12.77;;
30010;SDS011;16851;53.564;8.112;2023-11-18T01:10:33;19.47;;;13.27;;
30010;SDS011;16851;53.564;8.112;2023-11-18T01:15:37;18.80;;;12.27;;
30010;SDS011;16851;53.564;8.112;2023-11-18T01:20:43;20.63;;;12.90;;
30010;SDS011;16851;53.564;8.112;2023-11-18T01:25:49;17.50;;;12.27;;
30010;SDS011;16851;53.564;8.112;2023-11-18T01:30:52;19.60;;;11.63;;
30010;SDS011;16851;53.564;8.112;2023-11-18T01:35:55;16.80;;;11.60;;
30010;SDS011;16851;53.564;8.112;2023-11-18T01:40:59;27.47;;;16.57;;
30010;SDS011;16851;53.564;8.112;2023-11-18T01:46:05;33.23;;;18.00;;
30010;SDS011;16851;53.564;8.112;2023-11-18T01:51:11;21.33;;;13.57;;
30010;SDS011;16851;53.564;8.112;2023-11-18T01:56:16;20.63;;;12.80;;
30010;SDS011;16851;53.564;8.112;2023-11-18T02:01:20;23.10;;;14.23;;
30010;SDS011;16851;53.564;8.112;2023-11-18T02:06:23;31.67;;;16.20;;
30010;SDS011;16851;53.564;8.112;2023-11-18T02:11:51;28.57;;;15.53;;
30010;SDS011;16851;53.564;8.112;2023-11-18T02:16:59;27.93;;;16.07;;
30010;SDS011;16851;53.564;8.112;2023-11-18T02:22:03;25.93;;;15.00;;
30010;SDS011;16851;53.564;8.112;2023-11-18T02:27:12;20.90;;;14.03;;
30010;SDS011;16851;53.564;8.112;2023-11-18T02:37:39;29.40;;;16.20;;
30010;SDS011;16851;53.564;8.112;2023-11-18T02:42:44;23.90;;;14.60;;
30010;SDS011;16851;53.564;8.112;2023-11-18T02:47:49;20.03;;;12.00;;
30010;SDS011;16851;53.564;8.112;2023-11-18T02:52:51;26.07;;;15.30;;
30010;SDS011;16851;53.564;8.112;2023-11-18T02:57:53;22.07;;;13.30;;
30010;SDS011;16851;53.564;8.112;2023-11-18T03:02:54;17.20;;;11.63;;
30010;SDS011;16851;53.564;8.112;2023-11-18T03:08:01;18.77;;;11.13;;
30010;SDS011;16851;53.564;8.112;2023-11-18T03:13:10;29.17;;;15.60;;
30010;SDS011;16851;53.564;8.112;2023-11-18T03:18:14;37.30;;;18.37;;
30010;SDS011;16851;53.564;8.112;2023-11-18T03:23:19;24.13;;;14.90;;
30010;SDS011;16851;53.564;8.112;2023-11-18T03:28:23;39.47;;;17.17;;
30010;SDS011;16851;53.564;8.112;2023-11-18T03:33:25;32.90;;;16.77;;
30010;SDS011;16851;53.564;8.112;2023-11-18T03:38:29;33.40;;;18.00;;
30010;SDS011;16851;53.564;8.112;2023-11-18T03:43:31;40.10;;;20.30;;
30010;SDS011;16851;53.564;8.112;2023-11-18T03:48:35;44.20;;;20.47;;
30010;SDS011;16851;53.564;8.112;2023-11-18T03:53:37;34.37;;;19.53;;
30010;SDS011;16851;53.564;8.112;2023-11-18T03:58:41;58.43;;;25.30;;
30010;SDS011;16851;53.564;8.112;2023-11-18T04:03:49;54.23;;;24.27;;
30010;SDS011;16851;53.564;8.112;2023-11-18T04:08:54;58.03;;;25.27;;
30010;SDS011;16851;53.564;8.112;2023-11-18T04:13:56;78.13;;;29.93;;
30010;SDS011;16851;53.564;8.112;2023-11-18T04:19:01;83.60;;;32.23;;
30010;SDS011;16851;53.564;8.112;2023-11-18T04:24:05;89.07;;;34.47;;
30010;SDS011;16851;53.564;8.112;2023-11-18T04:29:07;74.60;;;32.43;;
30010;SDS011;16851;53.564;8.112;2023-11-18T04:34:09;88.97;;;34.90;;
30010;SDS011;16851;53.564;8.112;2023-11-18T04:39:11;99.40;;;35.47;;
30010;SDS011;16851;53.564;8.112;2023-11-18T04:44:15;116.70;;;38.73;;
30010;SDS011;16851;53.564;8.112;2023-11-18T04:49:22;103.53;;;38.93;;
30010;SDS011;16851;53.564;8.112;2023-11-18T04:54:24;130.13;;;41.50;;
30010;SDS011;16851;53.564;8.112;2023-11-18T04:59:28;109.60;;;40.57;;
30010;SDS011;16851;53.564;8.112;2023-11-18T05:04:32;114.13;;;41.37;;
30010;SDS011;16851;53.564;8.112;2023-11-18T05:09:34;103.73;;;41.13;;
30010;SDS011;16851;53.564;8.112;2023-11-18T05:14:38;121.27;;;42.63;;
30010;SDS011;16851;53.564;8.112;2023-11-18T05:19:40;135.33;;;46.17;;
30010;SDS011;16851;53.564;8.112;2023-11-18T05:24:45;139.77;;;48.20;;
30010;SDS011;16851;53.564;8.112;2023-11-18T05:29:47;166.03;;;53.77;;
30010;SDS011;16851;53.564;8.112;2023-11-18T05:34:57;152.67;;;52.10;;
30010;SDS011;16851;53.564;8.112;2023-11-18T05:39:59;165.10;;;57.37;;
30010;SDS011;16851;53.564;8.112;2023-11-18T05:45:08;156.97;;;55.80;;
30010;SDS011;16851;53.564;8.112;2023-11-18T05:50:19;149.90;;;53.63;;
30010;SDS011;16851;53.564;8.112;2023-11-18T05:55:21;478.47;;;96.90;;
30010;SDS011;16851;53.564;8.112;2023-11-18T06:00:23;622.90;;;114.77;;
30010;SDS011;16851;53.564;8.112;2023-11-18T06:05:36;583.17;;;105.90;;
30010;SDS011;16851;53.564;8.112;2023-11-18T06:10:41;453.03;;;97.03;;
30010;SDS011;16851;53.564;8.112;2023-11-18T06:15:43;656.23;;;110.87;;
30010;SDS011;16851;53.564;8.112;2023-11-18T06:20:45;804.53;;;119.00;;
30010;SDS011;16851;53.564;8.112;2023-11-18T06:25:49;590.03;;;104.87;;
30010;SDS011;16851;53.564;8.112;2023-11-18T06:30:53;722.10;;;117.70;;
30010;SDS011;16851;53.564;8.112;2023-11-18T06:35:55;726.30;;;111.13;;
30010;SDS011;16851;53.564;8.112;2023-11-18T06:40:57;573.50;;;102.23;;
30010;SDS011;16851;53.564;8.112;2023-11-18T06:46:01;632.07;;;117.73;;
30010;SDS011;16851;53.564;8.112;2023-11-18T06:51:06;743.80;;;122.20;;
30010;SDS011;16851;53.564;8.112;2023-11-18T06:56:09;995.30;;;144.90;;
30010;SDS011;16851;53.564;8.112;2023-11-18T07:01:12;698.30;;;130.90;;
30010;SDS011;16851;53.564;8.112;2023-11-18T07:06:16;635.37;;;129.97;;
30010;SDS011;16851;53.564;8.112;2023-11-18T07:11:23;709.67;;;139.73;;
30010;SDS011;16851;53.564;8.112;2023-11-18T07:16:25;774.08;;;196.52;;
30010;SDS011;16851;53.564;8.112;2023-11-18T07:21:27;816.13;;;204.50;;
30010;SDS011;16851;53.564;8.112;2023-11-18T07:26:29;707.33;;;186.27;;
30010;SDS011;16851;53.564;8.112;2023-11-18T07:31:31;603.67;;;173.15;;
30010;SDS011;16851;53.564;8.112;2023-11-18T07:36:33;483.07;;;122.07;;
30010;SDS011;16851;53.564;8.112;2023-11-18T07:41:37;396.20;;;111.73;;
30010;SDS011;16851;53.564;8.112;2023-11-18T07:46:39;544.03;;;122.50;;
30010;SDS011;16851;53.564;8.112;2023-11-18T07:51:44;459.03;;;107.17;;
30010;SDS011;16851;53.564;8.112;2023-11-18T07:56:46;459.13;;;115.23;;
30010;SDS011;16851;53.564;8.112;2023-11-18T08:01:50;401.33;;;110.40;;
30010;SDS011;16851;53.564;8.112;2023-11-18T08:06:55;444.67;;;108.93;;
30010;SDS011;16851;53.564;8.112;2023-11-18T08:11:57;363.27;;;101.73;;
30010;SDS011;16851;53.564;8.112;2023-11-18T08:17:00;295.70;;;94.87;;
30010;SDS011;16851;53.564;8.112;2023-11-18T08:22:02;230.10;;;81.17;;
30010;SDS011;16851;53.564;8.112;2023-11-18T08:27:05;211.17;;;75.33;;
30010;SDS011;16851;53.564;8.112;2023-11-18T08:32:10;217.27;;;75.70;;
30010;SDS011;16851;53.564;8.112;2023-11-18T08:37:12;183.23;;;72.53;;
30010;SDS011;16851;53.564;8.112;2023-11-18T08:42:17;189.37;;;72.33;;
30010;SDS011;16851;53.564;8.112;2023-11-18T08:47:20;182.40;;;74.27;;
30010;SDS011;16851;53.564;8.112;2023-11-18T08:52:22;177.80;;;69.90;;
30010;SDS011;16851;53.564;8.112;2023-11-18T08:57:29;165.00;;;73.83;;
30010;SDS011;16851;53.564;8.112;2023-11-18T09:02:49;151.33;;;67.37;;
30010;SDS011;16851;53.564;8.112;2023-11-18T09:07:55;156.47;;;62.10;;
30010;SDS011;16851;53.564;8.112;2023-11-18T09:12:59;138.77;;;60.70;;
30010;SDS011;16851;53.564;8.112;2023-11-18T09:18:02;152.00;;;66.17;;
30010;SDS011;16851;53.564;8.112;2023-11-18T09:23:05;177.97;;;90.03;;
30010;SDS011;16851;53.564;8.112;2023-11-18T09:28:10;183.00;;;100.10;;
30010;SDS011;16851;53.564;8.112;2023-11-18T09:33:13;125.77;;;58.60;;
30010;SDS011;16851;53.564;8.112;2023-11-18T09:38:17;115.30;;;56.00;;
30010;SDS011;16851;53.564;8.112;2023-11-18T09:43:20;109.90;;;55.87;;
30010;SDS011;16851;53.564;8.112;2023-11-18T09:48:25;105.93;;;53.37;;
30010;SDS011;16851;53.564;8.112;2023-11-18T09:53:34;98.20;;;50.67;;
30010;SDS011;16851;53.564;8.112;2023-11-18T09:58:44;96.40;;;48.70;;
30010;SDS011;16851;53.564;8.112;2023-11-18T10:03:59;88.50;;;46.00;;
30010;SDS011;16851;53.564;8.112;2023-11-18T10:09:03;83.23;;;46.27;;
30010;SDS011;16851;53.564;8.112;2023-11-18T10:14:16;76.13;;;42.30;;
30010;SDS011;16851;53.564;8.112;2023-11-18T10:19:18;78.67;;;43.27;;
30010;SDS011;16851;53.564;8.112;2023-11-18T10:24:23;72.37;;;39.67;;
30010;SDS011;16851;53.564;8.112;2023-11-18T10:29:30;126.47;;;58.83;;
30010;SDS011;16851;53.564;8.112;2023-11-18T10:34:37;95.10;;;47.23;;
30010;SDS011;16851;53.564;8.112;2023-11-18T10:39:41;91.97;;;43.97;;
30010;SDS011;16851;53.564;8.112;2023-11-18T10:44:54;87.97;;;44.50;;
30010;SDS011;16851;53.564;8.112;2023-11-18T10:49:59;78.80;;;41.97;;
30010;SDS011;16851;53.564;8.112;2023-11-18T10:55:02;67.20;;;38.27;;
30010;SDS011;16851;53.564;8.112;2023-11-18T11:00:14;59.50;;;33.83;;
30010;SDS011;16851;53.564;8.112;2023-11-18T11:05:30;59.40;;;35.10;;
30010;SDS011;16851;53.564;8.112;2023-11-18T11:10:39;62.17;;;33.50;;
30010;SDS011;16851;53.564;8.112;2023-11-18T11:15:43;64.03;;;35.03;;
30010;SDS011;16851;53.564;8.112;2023-11-18T11:31:39;55.27;;;30.90;;
30010;SDS011;16851;53.564;8.112;2023-11-18T11:36:48;51.90;;;29.37;;
30010;SDS011;16851;53.564;8.112;2023-11-18T11:41:53;50.63;;;28.10;;
30010;SDS011;16851;53.564;8.112;2023-11-18T11:46:59;48.73;;;27.27;;
30010;SDS011;16851;53.564;8.112;2023-11-18T11:52:04;50.43;;;28.10;;
30010;SDS011;16851;53.564;8.112;2023-11-18T11:57:29;49.63;;;26.63;;
30010;SDS011;16851;53.564;8.112;2023-11-18T12:02:35;50.07;;;28.37;;
30010;SDS011;16851;53.564;8.112;2023-11-18T12:07:42;51.37;;;27.63;;
30010;SDS011;16851;53.564;8.112;2023-11-18T12:12:44;47.77;;;27.50;;
30010;SDS011;16851;53.564;8.112;2023-11-18T12:23:02;51.03;;;29.33;;
30010;SDS011;16851;53.564;8.112;2023-11-18T12:28:16;62.23;;;33.77;;
30010;SDS011;16851;53.564;8.112;2023-11-18T12:33:23;61.00;;;34.73;;
30010;SDS011;16851;53.564;8.112;2023-11-18T12:44:36;62.63;;;32.37;;
30010;SDS011;16851;53.564;8.112;2023-11-18T12:49:24;60.23;;;31.43;;
30010;SDS011;16851;53.564;8.112;2023-11-18T12:54:29;61.27;;;32.77;;
30010;SDS011;16851;53.564;8.112;2023-11-18T12:59:31;55.63;;;29.83;;
30010;SDS011;16851;53.564;8.112;2023-11-18T13:04:36;58.43;;;31.03;;
30010;SDS011;16851;53.564;8.112;2023-11-18T13:09:44;60.13;;;30.13;;
30010;SDS011;16851;53.564;8.112;2023-11-18T13:14:47;56.87;;;29.43;;
30010;SDS011;16851;53.564;8.112;2023-11-18T13:19:56;59.50;;;31.50;;
30010;SDS011;16851;53.564;8.112;2023-11-18T13:24:59;53.43;;;29.87;;
30010;SDS011;16851;53.564;8.112;2023-11-18T13:30:01;51.80;;;29.20;;
30010;SDS011;16851;53.564;8.112;2023-11-18T13:35:06;55.03;;;31.73;;
30010;SDS011;16851;53.564;8.112;2023-11-18T13:40:11;60.87;;;32.20;;
30010;SDS011;16851;53.564;8.112;2023-11-18T13:45:15;59.60;;;32.53;;
30010;SDS011;16851;53.564;8.112;2023-11-18T13:50:43;65.00;;;33.70;;
30010;SDS011;16851;53.564;8.112;2023-11-18T13:55:45;59.30;;;31.60;;
30010;SDS011;16851;53.564;8.112;2023-11-18T14:00:51;64.97;;;33.73;;
30010;SDS011;16851;53.564;8.112;2023-11-18T14:05:57;68.20;;;35.60;;
30010;SDS011;16851;53.564;8.112;2023-11-18T14:11:06;66.23;;;35.50;;
30010;SDS011;16851;53.564;8.112;2023-11-18T14:16:18;64.30;;;34.90;;
30010;SDS011;16851;53.564;8.112;2023-11-18T14:21:25;72.90;;;44.13;;
30010;SDS011;16851;53.564;8.112;2023-11-18T14:26:32;69.90;;;36.50;;
30010;SDS011;16851;53.564;8.112;2023-11-18T14:31:37;69.70;;;36.43;;
30010;SDS011;16851;53.564;8.112;2023-11-18T14:36:41;74.20;;;36.23;;
30010;SDS011;16851;53.564;8.112;2023-11-18T14:41:48;70.57;;;35.70;;
30010;SDS011;16851;53.564;8.112;2023-11-18T14:46:51;71.43;;;35.37;;
30010;SDS011;16851;53.564;8.112;2023-11-18T14:51:56;65.73;;;33.63;;
30010;SDS011;16851;53.564;8.112;2023-11-18T14:57:00;59.80;;;30.60;;
30010;SDS011;16851;53.564;8.112;2023-11-18T15:02:06;69.57;;;34.60;;
30010;SDS011;16851;53.564;8.112;2023-11-18T15:07:09;71.57;;;32.93;;
30010;SDS011;16851;53.564;8.112;2023-11-18T15:12:14;74.03;;;32.00;;
30010;SDS011;16851;53.564;8.112;2023-11-18T15:17:18;67.63;;;32.07;;
30010;SDS011;16851;53.564;8.112;2023-11-18T15:22:24;67.50;;;32.77;;
30010;SDS011;16851;53.564;8.112;2023-11-18T15:27:28;66.60;;;32.10;;
30010;SDS011;16851;53.564;8.112;2023-11-18T15:32:30;62.57;;;31.33;;
30010;SDS011;16851;53.564;8.112;2023-11-18T15:37:32;62.43;;;30.30;;
30010;SDS011;16851;53.564;8.112;2023-11-18T15:42:43;58.47;;;29.67;;
30010;SDS011;16851;53.564;8.112;2023-11-18T15:47:50;61.73;;;30.07;;
30010;SDS011;16851;53.564;8.112;2023-11-18T15:52:52;62.63;;;29.93;;
30010;SDS011;16851;53.564;8.112;2023-11-18T15:57:54;66.47;;;33.30;;
30010;SDS011;16851;53.564;8.112;2023-11-18T16:02:58;53.40;;;28.60;;
30010;SDS011;16851;53.564;8.112;2023-11-18T16:08:06;56.67;;;28.17;;
30010;SDS011;16851;53.564;8.112;2023-11-18T16:13:13;53.17;;;26.03;;
30010;SDS011;16851;53.564;8.112;2023-11-18T16:18:15;55.50;;;26.47;;
30010;SDS011;16851;53.564;8.112;2023-11-18T16:23:20;45.93;;;24.13;;
30010;SDS011;16851;53.564;8.112;2023-11-18T16:28:24;56.07;;;26.43;;
30010;SDS011;16851;53.564;8.112;2023-11-18T16:33:29;45.40;;;23.37;;
30010;SDS011;16851;53.564;8.112;2023-11-18T16:38:31;46.53;;;23.60;;
30010;SDS011;16851;53.564;8.112;2023-11-18T16:43:36;44.93;;;22.67;;
30010;SDS011;16851;53.564;8.112;2023-11-18T16:48:38;54.60;;;25.93;;
30010;SDS011;16851;53.564;8.112;2023-11-18T16:53:43;39.03;;;20.30;;
30010;SDS011;16851;53.564;8.112;2023-11-18T16:58:45;51.17;;;24.90;;
30010;SDS011;16851;53.564;8.112;2023-11-18T17:03:51;44.27;;;22.40;;
30010;SDS011;16851;53.564;8.112;2023-11-18T17:08:53;37.13;;;19.97;;
30010;SDS011;16851;53.564;8.112;2023-11-18T17:13:58;46.87;;;24.20;;
30010;SDS011;16851;53.564;8.112;2023-11-18T17:18:59;44.20;;;22.63;;
30010;SDS011;16851;53.564;8.112;2023-11-18T17:24:06;40.53;;;21.30;;
30010;SDS011;16851;53.564;8.112;2023-11-18T17:29:09;38.13;;;20.67;;
30010;SDS011;16851;53.564;8.112;2023-11-18T17:34:15;44.10;;;24.40;;
30010;SDS011;16851;53.564;8.112;2023-11-18T17:39:18;35.97;;;19.90;;
30010;SDS011;16851;53.564;8.112;2023-11-18T17:44:20;36.43;;;18.87;;
30010;SDS011;16851;53.564;8.112;2023-11-18T17:49:24;29.37;;;18.67;;
30010;SDS011;16851;53.564;8.112;2023-11-18T17:54:26;30.87;;;16.53;;
30010;SDS011;16851;53.564;8.112;2023-11-18T17:59:30;33.03;;;16.90;;
30010;SDS011;16851;53.564;8.112;2023-11-18T18:04:32;28.53;;;15.40;;
30010;SDS011;16851;53.564;8.112;2023-11-18T18:09:36;27.70;;;15.37;;
30010;SDS011;16851;53.564;8.112;2023-11-18T18:14:40;28.50;;;15.57;;
30010;SDS011;16851;53.564;8.112;2023-11-18T18:19:45;26.93;;;15.73;;
30010;SDS011;16851;53.564;8.112;2023-11-18T18:24:51;31.87;;;16.30;;
30010;SDS011;16851;53.564;8.112;2023-11-18T18:29:53;36.43;;;16.03;;
30010;SDS011;16851;53.564;8.112;2023-11-18T18:34:56;24.87;;;13.27;;
30010;SDS011;16851;53.564;8.112;2023-11-18T18:39:59;27.57;;;12.97;;
30010;SDS011;16851;53.564;8.112;2023-11-18T18:45:05;25.00;;;9.07;;
30010;SDS011;16851;53.564;8.112;2023-11-18T18:50:08;24.43;;;11.93;;
30010;SDS011;16851;53.564;8.112;2023-11-18T18:55:12;19.33;;;10.13;;
30010;SDS011;16851;53.564;8.112;2023-11-18T19:00:14;14.47;;;7.90;;
30010;SDS011;16851;53.564;8.112;2023-11-18T19:05:19;15.07;;;7.00;;
30010;SDS011;16851;53.564;8.112;2023-11-18T19:10:24;14.93;;;8.97;;
30010;SDS011;16851;53.564;8.112;2023-11-18T19:15:26;18.47;;;8.83;;
30010;SDS011;16851;53.564;8.112;2023-11-18T19:20:29;19.13;;;8.47;;
30010;SDS011;16851;53.564;8.112;2023-11-18T19:25:52;21.40;;;9.80;;
30010;SDS011;16851;53.564;8.112;2023-11-18T19:30:54;15.70;;;9.27;;
30010;SDS011;16851;53.564;8.112;2023-11-18T19:36:00;19.37;;;11.13;;
30010;SDS011;16851;53.564;8.112;2023-11-18T19:41:05;14.63;;;8.97;;
30010;SDS011;16851;53.564;8.112;2023-11-18T19:46:10;19.37;;;9.77;;
30010;SDS011;16851;53.564;8.112;2023-11-18T19:51:15;15.00;;;9.70;;
30010;SDS011;16851;53.564;8.112;2023-11-18T19:56:17;23.23;;;13.07;;
30010;SDS011;16851;53.564;8.112;2023-11-18T20:01:20;23.00;;;12.27;;
30010;SDS011;16851;53.564;8.112;2023-11-18T20:06:29;25.37;;;12.97;;
30010;SDS011;16851;53.564;8.112;2023-11-18T20:11:34;19.03;;;12.10;;
30010;SDS011;16851;53.564;8.112;2023-11-18T20:16:40;33.27;;;17.43;;
30010;SDS011;16851;53.564;8.112;2023-11-18T20:21:49;28.47;;;15.93;;
30010;SDS011;16851;53.564;8.112;2023-11-18T20:26:51;23.17;;;13.53;;
30010;SDS011;16851;53.564;8.112;2023-11-18T20:31:53;20.57;;;9.80;;
30010;SDS011;16851;53.564;8.112;2023-11-18T20:37:03;21.37;;;11.37;;
30010;SDS011;16851;53.564;8.112;2023-11-18T20:42:13;29.13;;;15.47;;
30010;SDS011;16851;53.564;8.112;2023-11-18T20:47:17;21.13;;;11.73;;
30010;SDS011;16851;53.564;8.112;2023-11-18T20:52:19;14.90;;;9.43;;
30010;SDS011;16851;53.564;8.112;2023-11-18T20:57:21;26.60;;;14.30;;
30010;SDS011;16851;53.564;8.112;2023-11-18T21:02:25;29.00;;;14.67;;
30010;SDS011;16851;53.564;8.112;2023-11-18T21:07:28;19.17;;;11.77;;
30010;SDS011;16851;53.564;8.112;2023-11-18T21:12:30;26.27;;;13.67;;
30010;SDS011;16851;53.564;8.112;2023-11-18T21:17:34;22.03;;;10.80;;
30010;SDS011;16851;53.564;8.112;2023-11-18T21:22:41;29.33;;;16.23;;
30010;SDS011;16851;53.564;8.112;2023-11-18T21:27:43;22.30;;;13.57;;
30010;SDS011;16851;53.564;8.112;2023-11-18T21:32:49;30.10;;;15.83;;
30010;SDS011;16851;53.564;8.112;2023-11-18T21:37:54;25.23;;;14.07;;
30010;SDS011;16851;53.564;8.112;2023-11-18T21:43:00;17.67;;;10.80;;
30010;SDS011;16851;53.564;8.112;2023-11-18T21:48:04;29.40;;;15.47;;
30010;SDS011;16851;53.564;8.112;2023-11-18T21:53:08;27.67;;;15.50;;
30010;SDS011;16851;53.564;8.112;2023-11-18T21:58:12;26.10;;;14.90;;
30010;SDS011;16851;53.564;8.112;2023-11-18T22:03:17;23.90;;;14.63;;
30010;SDS011;16851;53.564;8.112;2023-11-18T22:08:19;25.67;;;15.23;;
30010;SDS011;16851;53.564;8.112;2023-11-18T22:13:26;23.53;;;13.63;;
30010;SDS011;16851;53.564;8.112;2023-11-18T22:18:33;20.23;;;13.07;;
30010;SDS011;16851;53.564;8.112;2023-11-18T22:23:37;20.77;;;13.27;;
30010;SDS011;16851;53.564;8.112;2023-11-18T22:28:39;23.07;;;14.17;;
30010;SDS011;16851;53.564;8.112;2023-11-18T22:33:42;24.67;;;16.17;;
30010;SDS011;16851;53.564;8.112;2023-11-18T22:38:44;32.47;;;18.27;;
30010;SDS011;16851;53.564;8.112;2023-11-18T22:43:50;24.50;;;15.83;;
30010;SDS011;16851;53.564;8.112;2023-11-18T22:48:51;26.00;;;16.23;;
30010;SDS011;16851;53.564;8.112;2023-11-18T22:53:54;26.27;;;16.60;;
30010;SDS011;16851;53.564;8.112;2023-11-18T22:59:01;33.97;;;19.97;;
30010;SDS011;16851;53.564;8.112;2023-11-18T23:04:06;26.33;;;17.13;;
30010;SDS011;16851;53.564;8.112;2023-11-18T23:09:16;37.33;;;21.60;;
30010;SDS011;16851;53.564;8.112;2023-11-18T23:14:18;35.40;;;21.60;;
30010;SDS011;16851;53.564;8.112;2023-11-18T23:19:24;38.10;;;22.90;;
30010;SDS011;16851;53.564;8.112;2023-11-18T23:24:26;41.57;;;23.20;;
30010;SDS011;16851;53.564;8.112;2023-11-18T23:29:28;39.30;;;23.03;;
30010;SDS011;16851;53.564;8.112;2023-11-18T23:34:30;31.93;;;21.00;;
30010;SDS011;16851;53.564;8.112;2023-11-18T23:39:32;48.07;;;27.43;;
30010;SDS011;16851;53.564;8.112;2023-11-18T23:44:36;42.93;;;25.20;;
30010;SDS011;16851;53.564;8.112;2023-11-18T23:49:38;52.23;;;27.80;;
30010;SDS011;16851;53.564;8.112;2023-11-18T23:54:42;50.67;;;27.23;;
30010;SDS011;16851;53.564;8.112;2023-11-18T23:59:44;39.60;;;23.03;;
